Time;durP1;ratioP1;P1;durP2;ratioP2;P2;SDS_P1;SDS_P2;PMS_P1;PMS_P2;Temp;Humidity;BMP_temperature;BMP_pressure;BME280_temperature;BME280_humidity;BME280_pressure;Samples;Min_cycle;Max_cycle;Signal;HPM_P1;HPM_P2
2023/08/15 00:02:24;;;;;;;;;;;;;;;20.23;100.00;101151.50;10582116;28;20018;-64
2023/08/15 00:07:26;;;;;;;;;;;;;;;20.16;100.00;101135.28;10581426;28;20412;-64
2023/08/15 00:12:28;;;;;;;;;;;;;;;20.06;100.00;101133.63;10582003;28;19924;-64
2023/08/15 00:17:31;;;;;;;;;;;;;;;20.10;100.00;101133.19;10581218;28;19923;-65
2023/08/15 00:22:33;;;;;;;;;;;;;;;20.08;100.00;101118.38;10581759;28;19973;-65
2023/08/15 00:27:36;;;;;;;;;;;;;;;20.10;100.00;101103.94;10580998;28;19923;-64
2023/08/15 00:32:38;;;;;;;;;;;;;;;19.96;100.00;101121.19;10580351;28;19930;-65
2023/08/15 00:37:40;;;;;;;;;;;;;;;20.17;100.00;101104.22;10581444;28;19972;-65
2023/08/15 00:42:42;;;;;;;;;;;;;;;20.04;100.00;101115.19;10586303;28;20354;-65
2023/08/15 00:47:44;;;;;;;;;;;;;;;20.15;100.00;101132.78;10588052;28;20298;-65
2023/08/15 00:52:47;;;;;;;;;;;;;;;20.01;100.00;101118.09;10587315;28;19930;-65
2023/08/15 00:57:49;;;;;;;;;;;;;;;20.10;100.00;101111.09;10587960;28;19930;-65
2023/08/15 01:02:51;;;;;;;;;;;;;;;20.09;100.00;101106.75;10588024;28;19927;-64
2023/08/15 01:07:54;;;;;;;;;;;;;;;20.08;100.00;101116.56;10569254;28;20382;-65
2023/08/15 01:13:09;;;;;;;;;;;;;;;19.83;100.00;101102.03;10585864;28;20401;-64
2023/08/15 01:18:28;;;;;;;;;;;;;;;20.08;100.00;101108.56;10586329;28;19924;-65
2023/08/15 01:23:49;;;;;;;;;;;;;;;20.04;100.00;101101.88;10585438;28;19930;-65
2023/08/15 01:28:51;;;;;;;;;;;;;;;19.99;100.00;101075.72;10569052;28;19930;-65
2023/08/15 01:34:11;;;;;;;;;;;;;;;19.78;100.00;101075.88;10586288;28;19931;-65
2023/08/15 01:39:13;;;;;;;;;;;;;;;19.93;100.00;101076.28;10568567;28;19924;-64
2023/08/15 01:44:15;;;;;;;;;;;;;;;20.08;100.00;101089.16;10585270;28;19930;-65
2023/08/15 01:49:18;;;;;;;;;;;;;;;20.02;100.00;101107.34;10584449;28;19927;-65
2023/08/15 01:54:20;;;;;;;;;;;;;;;19.98;100.00;101105.94;10585920;28;19997;-65
2023/08/15 01:59:22;;;;;;;;;;;;;;;20.11;100.00;101134.06;10585006;28;19945;-65
2023/08/15 02:04:24;;;;;;;;;;;;;;;20.23;100.00;101141.72;10585646;28;19927;-65
2023/08/15 02:09:27;;;;;;;;;;;;;;;20.48;100.00;101128.78;10584791;28;19923;-65
2023/08/15 02:14:29;;;;;;;;;;;;;;;20.57;100.00;101127.06;10585230;28;19931;-66
2023/08/15 02:19:31;;;;;;;;;;;;;;;20.65;100.00;101132.53;10584297;28;20374;-65
2023/08/15 02:24:33;;;;;;;;;;;;;;;20.67;100.00;101141.19;10583626;28;19924;-65
2023/08/15 02:29:35;;;;;;;;;;;;;;;20.48;100.00;101160.69;10584586;28;19924;-65
2023/08/15 02:34:38;;;;;;;;;;;;;;;20.40;100.00;101157.91;10583783;28;19930;-65
2023/08/15 02:39:40;;;;;;;;;;;;;;;20.25;100.00;101143.41;10584263;28;19924;-66
2023/08/15 02:44:43;;;;;;;;;;;;;;;20.12;100.00;101156.97;10583467;28;20007;-66
2023/08/15 02:49:45;;;;;;;;;;;;;;;19.91;100.00;101147.34;10583290;28;19950;-65
2023/08/15 02:54:47;;;;;;;;;;;;;;;19.68;100.00;101155.53;10583773;28;19924;-65
2023/08/15 02:59:49;;;;;;;;;;;;;;;19.80;100.00;101150.13;10581662;28;19924;-63
2023/08/15 03:04:52;;;;;;;;;;;;;;;19.84;100.00;101149.72;10581048;28;20405;-65
2023/08/15 03:09:54;;;;;;;;;;;;;;;19.75;100.00;101136.44;10583259;28;19930;-66
2023/08/15 03:14:57;;;;;;;;;;;;;;;19.65;100.00;101152.31;10582465;28;20393;-65
2023/08/15 03:19:59;;;;;;;;;;;;;;;19.54;100.00;101155.97;10581123;28;19947;-66
2023/08/15 03:25:03;;;;;;;;;;;;;;;19.67;99.86;101155.72;10581678;28;19924;-65
2023/08/15 03:30:05;;;;;;;;;;;;;;;19.55;99.50;101164.75;10582132;28;19967;-65
2023/08/15 03:35:07;;;;;;;;;;;;;;;19.31;100.00;101168.63;10581526;28;19930;-65
2023/08/15 03:40:11;;;;;;;;;;;;;;;19.50;100.00;101170.47;10582485;28;19931;-66
2023/08/15 03:45:13;;;;;;;;;;;;;;;19.18;100.00;101168.03;10581886;28;19947;-65
2023/08/15 03:50:15;;;;;;;;;;;;;;;19.29;100.00;101154.66;10582402;28;19927;-65
2023/08/15 03:55:17;;;;;;;;;;;;;;;19.15;100.00;101141.75;10581122;28;19934;-65
2023/08/15 04:00:20;;;;;;;;;;;;;;;19.20;100.00;101144.84;10581326;28;20573;-65
2023/08/15 04:05:24;;;;;;;;;;;;;;;19.10;100.00;101150.97;10582181;28;19924;-65
2023/08/15 04:10:26;;;;;;;;;;;;;;;18.93;100.00;101165.72;10580175;28;20381;-65
2023/08/15 04:15:28;;;;;;;;;;;;;;;18.96;100.00;101161.13;10583772;28;19924;-65
2023/08/15 04:20:30;;;;;;;;;;;;;;;18.77;100.00;101175.94;10589809;28;19931;-65
2023/08/15 04:25:33;;;;;;;;;;;;;;;18.77;100.00;101173.28;10587893;28;19933;-65
2023/08/15 04:30:35;;;;;;;;;;;;;;;18.88;100.00;101190.97;10588296;28;20010;-65
2023/08/15 04:35:39;;;;;;;;;;;;;;;18.75;100.00;101184.03;10588138;28;19931;-65
2023/08/15 04:40:43;;;;;;;;;;;;;;;18.32;100.00;101195.63;10587225;28;20010;-65
2023/08/15 04:45:45;;;;;;;;;;;;;;;18.47;100.00;101197.97;10588235;28;20344;-65
2023/08/15 04:50:48;;;;;;;;;;;;;;;18.55;100.00;101209.59;10588013;28;19924;-66
2023/08/15 04:55:50;;;;;;;;;;;;;;;18.56;100.00;101227.19;10588512;27;19930;-64
2023/08/15 05:00:52;;;;;;;;;;;;;;;18.57;100.00;101236.81;10587406;28;19932;-65
2023/08/15 05:05:55;;;;;;;;;;;;;;;18.64;100.00;101242.44;10586823;28;20007;-65
2023/08/15 05:10:57;;;;;;;;;;;;;;;18.44;100.00;101261.84;10587164;28;19930;-65
2023/08/15 05:15:59;;;;;;;;;;;;;;;18.60;100.00;101269.38;10585820;28;19923;-65
2023/08/15 05:21:01;;;;;;;;;;;;;;;18.59;100.00;101267.69;10586758;28;20009;-65
2023/08/15 05:26:04;;;;;;;;;;;;;;;18.44;100.00;101283.91;10586747;28;19967;-65
2023/08/15 05:31:06;;;;;;;;;;;;;;;18.34;100.00;101304.19;10585962;28;19927;-64
2023/08/15 05:36:08;;;;;;;;;;;;;;;18.40;100.00;101298.38;10585091;28;20290;-64
2023/08/15 05:41:11;;;;;;;;;;;;;;;18.51;100.00;101303.63;10586582;28;19946;-65
2023/08/15 05:46:13;;;;;;;;;;;;;;;18.57;100.00;101310.22;10585844;28;19930;-64
2023/08/15 05:51:15;;;;;;;;;;;;;;;18.44;100.00;101323.69;10585679;28;19923;-65
2023/08/15 05:56:17;;;;;;;;;;;;;;;18.76;100.00;101306.88;10585897;28;19928;-65
2023/08/15 06:01:21;;;;;;;;;;;;;;;19.04;100.00;101309.88;10584637;28;19931;-65
2023/08/15 06:06:23;;;;;;;;;;;;;;;18.84;100.00;101312.41;10585662;28;19976;-65
2023/08/15 06:11:25;;;;;;;;;;;;;;;19.26;100.00;101323.00;10585460;28;19928;-65
2023/08/15 06:16:28;;;;;;;;;;;;;;;18.88;100.00;101336.91;10584220;28;19930;-65
2023/08/15 06:21:30;;;;;;;;;;;;;;;19.26;100.00;101332.78;10583805;28;19970;-65
2023/08/15 06:26:32;;;;;;;;;;;;;;;19.30;100.00;101332.38;10584854;28;19924;-65
2023/08/15 06:31:35;;;;;;;;;;;;;;;19.28;100.00;101349.41;10583962;28;20260;-65
2023/08/15 06:36:37;;;;;;;;;;;;;;;19.52;100.00;101359.75;10582874;28;19924;-64
2023/08/15 06:41:39;;;;;;;;;;;;;;;19.57;100.00;101359.31;10583875;28;19924;-64
2023/08/15 06:46:41;;;;;;;;;;;;;;;19.75;100.00;101365.72;10583983;28;19923;-64
2023/08/15 06:51:44;;;;;;;;;;;;;;;20.00;100.00;101366.22;10582676;28;19930;-64
2023/08/15 06:56:46;;;;;;;;;;;;;;;19.66;100.00;101375.31;10582842;28;20349;-64
2023/08/15 07:01:49;;;;;;;;;;;;;;;20.18;100.00;101369.91;10583490;28;19924;-64
2023/08/15 07:06:52;;;;;;;;;;;;;;;20.14;100.00;101378.28;10583430;28;19930;-65
2023/08/15 07:11:56;;;;;;;;;;;;;;;20.03;100.00;101377.44;10583380;28;19930;-65
2023/08/15 07:16:58;;;;;;;;;;;;;;;20.70;97.13;101372.38;10582504;28;20364;-71
2023/08/15 07:22:00;;;;;;;;;;;;;;;20.70;93.59;101372.38;10581087;28;20289;-71
2023/08/15 07:27:02;;;;;;;;;;;;;;;21.07;91.13;101378.81;10582956;28;19924;-71
2023/08/15 07:32:06;;;;;;;;;;;;;;;22.01;87.14;101375.28;10582752;28;19924;-71
2023/08/15 07:37:09;;;;;;;;;;;;;;;22.43;83.53;101386.25;10580929;28;20015;-71
2023/08/15 07:42:12;;;;;;;;;;;;;;;22.80;83.43;101385.25;10582696;28;20019;-71
2023/08/15 07:47:14;;;;;;;;;;;;;;;22.56;80.18;101383.22;10580668;28;20297;-71
2023/08/15 07:52:16;;;;;;;;;;;;;;;23.63;78.06;101375.16;10589875;28;19928;-71
2023/08/15 07:57:19;;;;;;;;;;;;;;;23.78;76.29;101386.06;10588882;28;20370;-71
2023/08/15 08:02:21;;;;;;;;;;;;;;;22.59;77.96;101390.06;10571878;28;19962;-71
2023/08/15 08:07:24;;;;;;;;;;;;;;;23.05;77.61;101382.78;10589275;28;19930;-70
2023/08/15 08:12:30;;;;;;;;;;;;;;;22.63;81.32;101402.97;10590254;28;19935;-70
2023/08/15 08:17:32;;;;;;;;;;;;;;;23.10;79.38;101411.69;10588338;28;19962;-70
2023/08/15 08:22:34;;;;;;;;;;;;;;;23.13;78.03;101427.41;10588614;28;19924;-68
2023/08/15 08:27:36;;;;;;;;;;;;;;;22.94;78.51;101421.22;10589656;28;19977;-68
2023/08/15 08:32:39;;;;;;;;;;;;;;;23.35;77.61;101415.38;10589398;28;19931;-68
2023/08/15 08:37:41;;;;;;;;;;;;;;;22.50;83.29;101423.84;10587442;28;20281;-68
2023/08/15 08:42:44;;;;;;;;;;;;;;;23.04;81.11;101423.00;10588343;28;20392;-68
2023/08/15 08:47:46;;;;;;;;;;;;;;;23.30;79.94;101415.03;10587725;28;19934;-70
2023/08/15 08:52:49;;;;;;;;;;;;;;;23.29;79.87;101411.53;10569973;28;19924;-69
2023/08/15 08:57:52;;;;;;;;;;;;;;;22.91;78.17;101436.72;10569611;28;19992;-69
2023/08/15 09:02:56;;;;;;;;;;;;;;;23.39;77.52;101431.97;10587364;28;19931;-69
2023/08/15 09:07:58;;;;;;;;;;;;;;;23.30;78.48;101431.03;10586207;28;19955;-69
2023/08/15 09:13:03;;;;;;;;;;;;;;;23.15;79.10;101438.81;10587217;28;19945;-69
2023/08/15 09:18:07;;;;;;;;;;;;;;;23.23;78.70;101444.19;10569894;28;19924;-69
2023/08/15 09:23:10;;;;;;;;;;;;;;;24.07;76.67;101441.88;10585572;28;20366;-69
2023/08/15 09:28:12;;;;;;;;;;;;;;;24.23;75.49;101447.28;10587211;28;19924;-70
2023/08/15 09:33:14;;;;;;;;;;;;;;;24.14;75.48;101448.28;10586399;28;20367;-69
2023/08/15 09:38:16;;;;;;;;;;;;;;;24.62;75.43;101456.63;10586803;28;19934;-69
2023/08/15 09:43:19;;;;;;;;;;;;;;;24.27;73.98;101464.66;10586540;28;19923;-69
2023/08/15 09:48:22;;;;;;;;;;;;;;;24.42;73.86;101458.72;10586446;28;19930;-69
2023/08/15 09:53:24;;;;;;;;;;;;;;;24.22;73.42;101475.03;10584399;28;19924;-69
2023/08/15 09:58:26;;;;;;;;;;;;;;;24.42;76.98;101475.59;10583988;28;20389;-69
2023/08/15 10:03:32;;;;;;;;;;;;;;;24.44;76.29;101480.78;10585755;28;19924;-69
2023/08/15 10:08:38;;;;;;;;;;;;;;;26.20;72.04;101481.25;10583687;28;19959;-69
2023/08/15 10:13:41;;;;;;;;;;;;;;;25.26;72.75;101483.63;10583594;28;19924;-69
2023/08/15 10:18:50;;;;;;;;;;;;;;;24.62;74.46;101494.09;10583946;28;20060;-69
2023/08/15 10:23:52;;;;;;;;;;;;;;;24.50;76.80;101503.41;10583086;28;19923;-69
2023/08/15 10:28:55;;;;;;;;;;;;;;;24.45;74.66;101511.91;10583009;28;19930;-69
2023/08/15 10:33:57;;;;;;;;;;;;;;;24.29;76.62;101505.50;10583253;28;19927;-69
2023/08/15 10:39:09;;;;;;;;;;;;;;;23.51;80.33;101518.88;10582346;28;20371;-69
2023/08/15 10:44:11;;;;;;;;;;;;;;;23.52;80.58;101517.91;10584145;28;20026;-69
2023/08/15 10:49:14;;;;;;;;;;;;;;;22.94;84.00;101533.38;10583956;28;19938;-69
2023/08/15 10:54:17;;;;;;;;;;;;;;;22.81;91.13;101531.09;10565062;28;20453;-69
2023/08/15 10:59:20;;;;;;;;;;;;;;;22.85;92.13;101530.75;10583101;28;19923;-68
2023/08/15 11:04:23;;;;;;;;;;;;;;;23.54;83.34;101532.78;10583364;28;19930;-69
2023/08/15 11:09:26;;;;;;;;;;;;;;;23.23;80.71;101527.00;10581570;28;20422;-69
2023/08/15 11:14:28;;;;;;;;;;;;;;;24.03;79.81;101526.94;10583328;28;19923;-69
2023/08/15 11:19:32;;;;;;;;;;;;;;;24.23;78.11;101522.19;10583050;28;19930;-69
2023/08/15 11:24:34;;;;;;;;;;;;;;;24.20;77.03;101524.34;10580663;28;20458;-70
2023/08/15 11:29:37;;;;;;;;;;;;;;;24.77;74.62;101521.91;10582828;28;19934;-70
2023/08/15 11:34:39;;;;;;;;;;;;;;;25.89;72.31;101516.03;10582701;28;19963;-69
2023/08/15 11:39:41;;;;;;;;;;;;;;;25.71;67.47;101527.00;10581963;28;20294;-69
2023/08/15 11:44:43;;;;;;;;;;;;;;;27.35;65.34;101518.19;10582445;28;19924;-70
2023/08/15 11:49:46;;;;;;;;;;;;;;;26.58;69.00;101526.19;10582379;28;19924;-70
2023/08/15 11:54:48;;;;;;;;;;;;;;;26.73;65.47;101513.75;10581715;28;19930;-70
2023/08/15 11:59:50;;;;;;;;;;;;;;;28.15;62.07;101521.25;10580169;28;20313;-70
2023/08/15 12:04:53;;;;;;;;;;;;;;;29.81;60.30;101522.13;10580942;28;19923;-70
2023/08/15 12:09:55;;;;;;;;;;;;;;;29.46;58.20;101516.66;10580185;28;20321;-69
2023/08/15 12:14:57;;;;;;;;;;;;;;;28.53;58.31;101515.72;10587381;22;19928;-70
2023/08/15 12:20:00;;;;;;;;;;;;;;;26.99;60.26;101517.94;10581868;28;19924;-70
2023/08/15 12:25:04;;;;;;;;;;;;;;;28.27;62.53;101517.06;10581767;28;19924;-70
2023/08/15 12:30:07;;;;;;;;;;;;;;;27.79;62.37;101511.22;10581081;28;20341;-70
2023/08/15 12:35:13;;;;;;;;;;;;;;;26.98;61.97;101516.25;10581418;28;19931;-70
2023/08/15 12:40:15;;;;;;;;;;;;;;;26.42;63.39;101516.41;10571116;28;19967;-70
2023/08/15 12:45:31;;;;;;;;;;;;;;;25.75;66.82;101523.78;10588348;28;19924;-70
2023/08/15 12:50:33;;;;;;;;;;;;;;;25.23;69.18;101524.13;10588810;28;19970;-70
2023/08/15 12:55:35;;;;;;;;;;;;;;;25.52;68.73;101523.66;10588637;28;19924;-70
2023/08/15 13:00:41;;;;;;;;;;;;;;;27.29;66.44;101526.97;10588426;28;19934;-70
2023/08/15 13:05:44;;;;;;;;;;;;;;;28.10;62.58;101519.13;10586432;28;20026;-70
2023/08/15 13:10:46;;;;;;;;;;;;;;;29.92;56.38;101523.41;10588046;28;19923;-71
2023/08/15 13:15:49;;;;;;;;;;;;;;;29.17;55.96;101509.59;10586958;28;19930;-71
2023/08/15 13:20:51;;;;;;;;;;;;;;;27.16;61.04;101519.47;10585736;28;20294;-71
2023/08/15 13:25:54;;;;;;;;;;;;;;;26.75;64.60;101525.16;10585552;28;19946;-70
2023/08/15 13:30:56;;;;;;;;;;;;;;;28.95;58.38;101522.22;10586757;28;19930;-71
2023/08/15 13:35:58;;;;;;;;;;;;;;;28.52;58.21;101514.03;10586953;28;19934;-70
2023/08/15 13:41:00;;;;;;;;;;;;;;;29.83;58.52;101516.53;10586695;28;19924;-71
2023/08/15 13:46:03;;;;;;;;;;;;;;;28.79;58.79;101517.88;10585590;28;19924;-71
2023/08/15 13:51:13;;;;;;;;;;;;;;;28.80;60.91;101521.41;10585239;28;19923;-71
2023/08/15 13:56:15;;;;;;;;;;;;;;;28.82;61.44;101520.22;10584977;28;19930;-71
2023/08/15 14:01:17;;;;;;;;;;;;;;;30.91;56.38;101524.84;10584729;28;19924;-71
2023/08/15 14:06:19;;;;;;;;;;;;;;;30.06;55.94;101516.25;10585797;28;20014;-71
2023/08/15 14:11:22;;;;;;;;;;;;;;;30.81;54.82;101523.59;10585595;28;19955;-71
2023/08/15 14:16:24;;;;;;;;;;;;;;;28.59;59.01;101519.53;10583442;28;20277;-72
2023/08/15 14:21:26;;;;;;;;;;;;;;;26.87;63.65;101523.72;10585012;28;19978;-71
2023/08/15 14:26:28;;;;;;;;;;;;;;;27.30;64.19;101527.81;10583302;28;19934;-71
2023/08/15 14:31:31;;;;;;;;;;;;;;;27.63;65.05;101531.03;10584811;28;19930;-71
2023/08/15 14:36:33;;;;;;;;;;;;;;;30.09;59.45;101510.41;10583998;28;20367;-71
2023/08/15 14:41:37;;;;;;;;;;;;;;;30.38;55.38;101520.16;10584306;28;19930;-71
2023/08/15 14:46:40;;;;;;;;;;;;;;;27.91;60.54;101520.50;10584171;28;19924;-71
2023/08/15 14:51:42;;;;;;;;;;;;;;;27.74;60.96;101518.97;10583451;28;20374;-72
2023/08/15 14:56:44;;;;;;;;;;;;;;;26.46;65.15;101512.34;10583785;28;19924;-71
2023/08/15 15:01:46;;;;;;;;;;;;;;;25.54;67.26;101528.88;10582180;28;19938;-71
2023/08/15 15:06:49;;;;;;;;;;;;;;;25.50;68.82;101524.81;10582845;28;20010;-72
2023/08/15 15:11:51;;;;;;;;;;;;;;;24.94;70.66;101538.00;10583311;28;19924;-71
2023/08/15 15:16:54;;;;;;;;;;;;;;;27.33;63.23;101532.81;10582419;28;19923;-71
2023/08/15 15:21:57;;;;;;;;;;;;;;;29.83;57.85;101530.03;10582983;28;19923;-71
2023/08/15 15:27:01;;;;;;;;;;;;;;;28.94;58.91;101538.56;10581573;28;21450;-72
2023/08/15 15:32:04;;;;;;;;;;;;;;;28.56;58.51;101530.69;10581658;28;19924;-72
2023/08/15 15:37:06;;;;;;;;;;;;;;;26.38;64.03;101537.38;10582661;28;19969;-72
2023/08/15 15:42:08;;;;;;;;;;;;;;;27.08;63.19;101549.09;10581949;28;19931;-72
2023/08/15 15:47:12;;;;;;;;;;;;;;;25.30;65.81;101543.09;10581937;28;19923;-72
2023/08/15 15:52:15;;;;;;;;;;;;;;;26.04;65.15;101551.94;10582586;28;20010;-72
2023/08/15 15:57:17;;;;;;;;;;;;;;;26.06;65.60;101559.81;10581915;28;19934;-71
2023/08/15 16:02:19;;;;;;;;;;;;;;;25.92;66.71;101567.53;10582241;28;19935;-71
2023/08/15 16:07:22;;;;;;;;;;;;;;;26.31;65.96;101557.91;10581601;28;19931;-71
2023/08/15 16:12:24;;;;;;;;;;;;;;;26.20;65.69;101556.41;10587611;28;19928;-71
2023/08/15 16:17:26;;;;;;;;;;;;;;;26.29;66.52;101563.44;10589644;28;19924;-72
2023/08/15 16:22:29;;;;;;;;;;;;;;;27.43;64.00;101552.22;10588781;28;19924;-72
2023/08/15 16:27:31;;;;;;;;;;;;;;;27.23;61.92;101550.00;10589885;28;19924;-72
2023/08/15 16:32:33;;;;;;;;;;;;;;;27.47;61.28;101555.38;10588919;28;19930;-71
2023/08/15 16:37:35;;;;;;;;;;;;;;;26.15;66.60;101558.78;10589448;28;19966;-72
2023/08/15 16:42:37;;;;;;;;;;;;;;;25.67;67.12;101557.81;10587341;28;19930;-72
2023/08/15 16:47:40;;;;;;;;;;;;;;;25.73;66.28;101555.31;10588457;28;20392;-71
2023/08/15 16:52:42;;;;;;;;;;;;;;;25.39;67.79;101568.91;10588252;28;19923;-71
2023/08/15 16:57:44;;;;;;;;;;;;;;;25.12;67.77;101567.34;10588027;28;19924;-71
2023/08/15 17:02:46;;;;;;;;;;;;;;;24.13;69.62;101582.19;10586435;28;20374;-70
2023/08/15 17:07:49;;;;;;;;;;;;;;;24.11;69.73;101585.84;10587543;28;19959;-71
2023/08/15 17:12:51;;;;;;;;;;;;;;;24.19;69.80;101579.72;10587574;28;19924;-71
2023/08/15 17:17:53;;;;;;;;;;;;;;;24.00;72.65;101582.59;10587134;28;20301;-70
2023/08/15 17:22:56;;;;;;;;;;;;;;;24.25;72.42;101584.41;10586766;28;19924;-70
2023/08/15 17:27:58;;;;;;;;;;;;;;;23.89;72.87;101589.88;10587253;28;19931;-70
2023/08/15 17:33:00;;;;;;;;;;;;;;;23.68;73.14;101602.72;10587073;28;19934;-70
2023/08/15 17:38:02;;;;;;;;;;;;;;;23.46;73.82;101602.19;10586940;28;19973;-70
2023/08/15 17:43:05;;;;;;;;;;;;;;;23.48;73.27;101612.72;10585371;28;20006;-70
2023/08/15 17:48:08;;;;;;;;;;;;;;;23.24;74.11;101606.16;10585723;28;19924;-70
2023/08/15 17:53:11;;;;;;;;;;;;;;;23.49;72.13;101612.56;10586354;28;19928;-71
2023/08/15 17:58:13;;;;;;;;;;;;;;;23.56;73.53;101626.16;10585517;28;19931;-71
2023/08/15 18:03:15;;;;;;;;;;;;;;;23.17;75.83;101615.78;10585899;28;19924;-70
2023/08/15 18:08:18;;;;;;;;;;;;;;;23.03;76.23;101625.09;10585631;28;19931;-70
2023/08/15 18:13:20;;;;;;;;;;;;;;;23.07;75.85;101631.03;10584678;28;20039;-71
2023/08/15 18:18:22;;;;;;;;;;;;;;;22.97;76.42;101641.72;10584106;28;19924;-70
2023/08/15 18:23:25;;;;;;;;;;;;;;;22.76;76.59;101639.28;10583182;28;20360;-71
2023/08/15 18:28:27;;;;;;;;;;;;;;;22.79;79.10;101644.34;10584966;28;20002;-70
2023/08/15 18:33:29;;;;;;;;;;;;;;;22.64;80.47;101660.00;10583739;28;20012;-70
2023/08/15 18:38:32;;;;;;;;;;;;;;;22.57;81.13;101667.72;10583325;28;19930;-70
2023/08/15 18:43:34;;;;;;;;;;;;;;;22.00;81.53;101680.19;10583581;28;19930;-70
2023/08/15 18:48:36;;;;;;;;;;;;;;;22.07;78.61;101687.50;10583579;28;19924;-70
2023/08/15 18:53:39;;;;;;;;;;;;;;;21.99;76.70;101687.34;10583368;28;19946;-70
2023/08/15 18:58:45;;;;;;;;;;;;;;;21.94;77.00;101691.41;10581945;28;19923;-70
2023/08/15 19:03:48;;;;;;;;;;;;;;;21.98;78.67;101704.31;10582979;28;20263;-70
2023/08/15 19:08:50;;;;;;;;;;;;;;;21.81;79.33;101716.53;10583508;28;20015;-70
2023/08/15 19:13:52;;;;;;;;;;;;;;;21.92;78.58;101720.88;10582923;28;19930;-70
2023/08/15 19:18:59;;;;;;;;;;;;;;;21.70;79.46;101728.16;10583146;28;19923;-70
2023/08/15 19:24:01;;;;;;;;;;;;;;;21.38;80.81;101736.31;10583024;28;19931;-70
2023/08/15 19:29:03;;;;;;;;;;;;;;;21.39;81.54;101745.19;10582180;28;20304;-70
2023/08/15 19:34:08;;;;;;;;;;;;;;;21.34;81.50;101764.22;10582863;28;19924;-70
2023/08/15 19:39:11;;;;;;;;;;;;;;;21.38;81.92;101775.44;10582708;28;19971;-70
2023/08/15 19:44:13;;;;;;;;;;;;;;;21.30;83.63;101776.09;10581259;28;20285;-70
2023/08/15 19:49:15;;;;;;;;;;;;;;;21.42;83.16;101780.38;10591362;28;19930;-70
2023/08/15 19:54:17;;;;;;;;;;;;;;;21.38;82.58;101786.94;10590562;28;20378;-70
2023/08/15 19:59:20;;;;;;;;;;;;;;;21.22;83.91;101789.28;10590953;28;20011;-70
2023/08/15 20:04:22;;;;;;;;;;;;;;;21.10;85.78;101796.50;10590650;28;20010;-70
2023/08/15 20:09:24;;;;;;;;;;;;;;;21.12;83.93;101795.38;10589378;28;19973;-70
2023/08/15 20:14:27;;;;;;;;;;;;;;;20.87;84.79;101803.81;10589552;28;19924;-70
2023/08/15 20:19:29;;;;;;;;;;;;;;;20.96;85.29;101809.19;10590198;28;19927;-70
2023/08/15 20:24:34;;;;;;;;;;;;;;;21.01;84.38;101816.75;10588728;28;19931;-70
2023/08/15 20:29:37;;;;;;;;;;;;;;;20.88;84.95;101808.13;10589836;28;19924;-70
2023/08/15 20:34:39;;;;;;;;;;;;;;;20.75;84.88;101813.69;10589594;28;19927;-69
2023/08/15 20:39:41;;;;;;;;;;;;;;;20.53;84.17;101809.28;10588714;28;20275;-70
2023/08/15 20:44:44;;;;;;;;;;;;;;;20.73;84.57;101813.81;10587277;28;19924;-69
2023/08/15 20:49:46;;;;;;;;;;;;;;;20.64;83.09;101824.38;10588980;28;19924;-71
2023/08/15 20:54:48;;;;;;;;;;;;;;;20.55;86.47;101817.97;10586875;28;19946;-69
2023/08/15 20:59:51;;;;;;;;;;;;;;;20.40;86.86;101828.06;10587244;28;19971;-70
2023/08/15 21:04:53;;;;;;;;;;;;;;;20.27;89.91;101825.56;10588276;28;19924;-70
2023/08/15 21:09:55;;;;;;;;;;;;;;;20.00;88.59;101826.88;10587994;28;19924;-70
2023/08/15 21:14:58;;;;;;;;;;;;;;;19.82;91.76;101831.00;10586127;28;19924;-69
2023/08/15 21:20:00;;;;;;;;;;;;;;;19.74;94.54;101841.41;10587058;28;20317;-70
2023/08/15 21:25:02;;;;;;;;;;;;;;;19.63;94.39;101828.97;10586198;28;19924;-69
2023/08/15 21:30:05;;;;;;;;;;;;;;;19.66;94.26;101840.19;10587293;28;19930;-69
2023/08/15 21:35:07;;;;;;;;;;;;;;;19.61;nan;101831.72;10586583;28;19970;-69
2023/08/15 21:40:10;;;;;;;;;;;;;;;19.58;95.88;101839.94;10587166;28;19930;-69
2023/08/15 21:45:13;;;;;;;;;;;;;;;19.44;96.50;101841.03;10586674;28;19930;-69
2023/08/15 21:50:15;;;;;;;;;;;;;;;19.38;98.59;101844.16;10585431;28;19924;-69
2023/08/15 21:55:17;;;;;;;;;;;;;;;19.18;99.67;101844.88;10585825;28;19959;-70
2023/08/15 22:00:19;;;;;;;;;;;;;;;19.16;100.00;101849.47;10585543;28;19930;-70
2023/08/15 22:05:25;;;;;;;;;;;;;;;18.99;100.00;101846.28;10585236;28;19928;-69
2023/08/15 22:10:27;;;;;;;;;;;;;;;18.93;100.00;101844.13;10584369;28;19973;-69
2023/08/15 22:15:29;;;;;;;;;;;;;;;18.79;100.00;101847.78;10583781;28;19930;-69
2023/08/15 22:20:32;;;;;;;;;;;;;;;18.83;100.00;101835.16;10584114;28;19924;-69
2023/08/15 22:25:35;;;;;;;;;;;;;;;18.65;100.00;101837.38;10585103;28;19931;-69
2023/08/15 22:30:37;;;;;;;;;;;;;;;18.48;100.00;101854.56;10584926;28;19924;-69
2023/08/15 22:35:40;;;;;;;;;;;;;;;18.37;100.00;101850.91;10583591;28;19931;-69
2023/08/15 22:40:42;;;;;;;;;;;;;;;18.32;100.00;101839.75;10583908;28;19946;-69
2023/08/15 22:45:45;;;;;;;;;;;;;;;18.26;100.00;101840.22;10584286;28;19923;-69
2023/08/15 22:50:47;;;;;;;;;;;;;;;18.18;100.00;101845.25;10582359;28;20302;-69
2023/08/15 22:55:50;;;;;;;;;;;;;;;18.17;100.00;101847.06;10583961;28;19924;-69
2023/08/15 23:00:55;;;;;;;;;;;;;;;18.33;100.00;101844.09;10582009;28;20394;-69
2023/08/15 23:06:01;;;;;;;;;;;;;;;18.30;100.00;101846.97;10582397;28;19924;-69
2023/08/15 23:11:04;;;;;;;;;;;;;;;18.35;100.00;101844.00;10582251;28;20012;-69
2023/08/15 23:16:06;;;;;;;;;;;;;;;18.42;100.00;101839.94;10581479;28;19924;-69
2023/08/15 23:21:08;;;;;;;;;;;;;;;18.52;100.00;101834.78;10581380;28;19923;-70
2023/08/15 23:26:10;;;;;;;;;;;;;;;18.32;100.00;101831.81;10581797;28;19934;-69
2023/08/15 23:31:13;;;;;;;;;;;;;;;18.51;100.00;101833.13;10581115;28;19924;-69
2023/08/15 23:36:15;;;;;;;;;;;;;;;18.46;100.00;101829.94;10582822;28;19957;-69
2023/08/15 23:41:17;;;;;;;;;;;;;;;18.12;100.00;101841.25;10581484;28;19924;-69
2023/08/15 23:46:20;;;;;;;;;;;;;;;18.08;100.00;101833.63;10580719;28;20271;-69
2023/08/15 23:51:22;;;;;;;;;;;;;;;17.96;100.00;101845.97;10564507;28;19930;-69
2023/08/15 23:56:24;;;;;;;;;;;;;;;18.10;100.00;101837.84;10564387;28;20006;-69
